• Join FlightAware (Why Join?)
  • Login
  • US Flag 
02:36AM EDT


 

Airport Tracker/Info


-or-


 

Live Flight TrackerFlight Track Log ✈ DAL268 ✈ 05-Sep-2013 ✈ KSFO - KJFK

Flight Track Log - Related Links

Times and Time Zones

All times are in EDT time to prevent confusion due to time zone crossing. See the DAL268 flight status page for this flight to view local times or setup timezone preferences in your user account.

Time Position Orientation Groundspeed Altitude Reporting Facility
EDT Latitude Longitude Course Direction KTS MPH feet Rate Location/Type
02:30PM 37.6230 -122.3700 38° Northeast 166 191 100  Level FlightAware
02:30PM 37.6301 -122.3650 29° Northeast 165 190 600 2,820 Climbing FlightAware ADS-B
02:31PM 37.6372 -122.3580 38° Northeast 170 196 1,100 2,220 Climbing FlightAware ADS-B
02:31PM 37.6392 -122.3550 50° Northeast 179 206 1,200 1,980 Climbing FlightAware ADS-B
02:31PM 37.6418 -122.3510 51° Northeast 185 213 1,400 2,100 Climbing FlightAware ADS-B
02:31PM 37.6467 -122.3420 55° Northeast 196 226 1,700 1,920 Climbing FlightAware ADS-B
02:31PM 37.6557 -122.3270 53° Northeast 210 242 2,200 1,920 Climbing FlightAware ADS-B
02:31PM 37.6651 -122.3120 52° Northeast 225 259 2,700 2,100 Climbing FlightAware ADS-B
02:32PM 37.6759 -122.2940 53° Northeast 244 281 3,300 2,040 Climbing FlightAware ADS-B
02:32PM 37.6875 -122.2760 51° Northeast 260 299 3,800 2,280 Climbing FlightAware ADS-B
02:32PM 37.7034 -122.2520 50° Northeast 271 312 4,700 2,820 Climbing FlightAware ADS-B
02:33PM 37.7217 -122.2300 44° Northeast 277 319 5,700 2,880 Climbing FlightAware ADS-B
02:33PM 37.7397 -122.2120 38° Northeast 283 326 6,500 2,700 Climbing FlightAware ADS-B
02:33PM 37.7562 -122.1970 36° Northeast 290 334 7,200 2,700 Climbing FlightAware ADS-B
02:33PM 37.7726 -122.1820 36° Northeast 293 337 7,900 2,700 Climbing FlightAware ADS-B
02:34PM 37.7907 -122.1650 37° Northeast 300 345 8,600 2,580 Climbing FlightAware ADS-B
02:34PM 37.8083 -122.1490 36° Northeast 306 352 9,300 2,160 Climbing FlightAware ADS-B
02:34PM 37.8471 -122.1130 36° Northeast 322 371 10,400 1,380 Climbing FlightAware ADS-B
02:35PM 37.8864 -122.0760 37° Northeast 371 427 10,800 960 Climbing FlightAware ADS-B
02:35PM 37.9300 -122.0350 37° Northeast 404 465 11,400 1,380 Climbing FlightAware ADS-B
02:36PM 37.9841 -121.9850 36° Northeast 421 484 12,300 1,920 Climbing FlightAware ADS-B
02:37PM 38.0468 -121.9260 37° Northeast 437 503 13,800 2,160 Climbing FlightAware ADS-B
02:37PM 38.1210 -121.8570 36° Northeast 446 513 15,400 2,100 Climbing FlightAware
02:38PM 38.1790 -121.8020 37° Northeast 454 522 16,600 2,040 Climbing FlightAware
02:39PM 38.2400 -121.7450 36° Northeast 461 531 17,800 2,040 Climbing FlightAware
02:39PM 38.3000 -121.6870 37° Northeast 464 534 19,100 1,800 Climbing FlightAware
02:40PM 38.3570 -121.6340 36° Northeast 473 544 19,900 1,620 Climbing FlightAware
02:40PM 38.4130 -121.5620 45° Northeast 481 554 21,000 1,620 Climbing FlightAware
02:41PM 38.4630 -121.4820 51° Northeast 491 565 21,900 1,500 Climbing FlightAware
02:41PM 38.5070 -121.4070 53° Northeast 497 572 22,700 1,440 Climbing FlightAware
02:42PM 38.5620 -121.3150 53° Northeast 504 580 23,600 1,320 Climbing FlightAware
02:43PM 38.6090 -121.2360 53° Northeast 510 587 24,300 1,260 Climbing FlightAware
02:43PM 38.6610 -121.1480 53° Northeast 518 596 25,100 1,200 Climbing FlightAware
02:44PM 38.7070 -121.0710 53° Northeast 523 602 25,700 1,200 Climbing FlightAware
02:44PM 38.7590 -120.9830 53° Northeast 526 605 26,500 1,260 Climbing FlightAware
02:45PM 38.8100 -120.8970 53° Northeast 532 612 27,200 1,200 Climbing FlightAware
02:46PM 38.8640 -120.8060 53° Northeast 534 615 27,900 1,500 Climbing FlightAware
02:46PM 38.9150 -120.7190 53° Northeast 528 608 29,000 1,680 Climbing FlightAware
02:47PM 38.9660 -120.6310 53° Northeast 526 605 29,900 1,560 Climbing FlightAware
02:47PM 39.0180 -120.5420 53° Northeast 521 600 30,900 1,620 Climbing FlightAware
02:48PM 39.0630 -120.4640 53° Northeast 518 596 31,800 1,500 Climbing FlightAware
02:48PM 39.1180 -120.3690 53° Northeast 514 592 32,700 1,500 Climbing FlightAware
02:49PM 39.1690 -120.2810 53° Northeast 509 586 33,700 1,800 Climbing FlightAware
02:50PM 39.2150 -120.2010 53° Northeast 497 572 34,800 1,080 Climbing FlightAware
02:50PM 39.2650 -120.1150 53° Northeast 502 578 35,000 120 Climbing FlightAware
02:51PM 39.3160 -120.0260 53° Northeast 510 587 35,000  Level FlightAware
02:51PM 39.3590 -119.9490 54° Northeast 512 589 35,000  Level FlightAware
02:52PM 39.4130 -119.8550 53° Northeast 510 587 35,000  Level FlightAware
02:53PM 39.4570 -119.7770 54° Northeast 512 589 35,000  Level FlightAware
02:53PM 39.5080 -119.6880 53° Northeast 516 594 35,000  Level FlightAware
02:54PM 39.5580 -119.5990 54° Northeast 513 590 35,000  Level FlightAware
02:54PM 39.6100 -119.5080 53° Northeast 515 593 35,000  Level FlightAware
02:55PM 39.6550 -119.4270 54° Northeast 519 597 35,000  Level FlightAware
02:56PM 39.7080 -119.3320 54° Northeast 523 602 35,000 300 Level FlightAware
02:56PM 39.7550 -119.2470 54° Northeast 520 598 35,400 1,080 Climbing FlightAware
02:57PM 39.8050 -119.1580 54° Northeast 512 589 36,300 1,380 Climbing FlightAware
02:57PM 39.8520 -119.0740 54° Northeast 508 585 37,000 600 Climbing FlightAware
02:58PM 39.9030 -118.9810 54° Northeast 513 590 37,000  Level FlightAware
02:58PM 39.9500 -118.8960 54° Northeast 521 600 37,000  Level FlightAware
02:59PM 40.0020 -118.8030 54° Northeast 527 606 37,000  Level FlightAware
03:00PM 40.0500 -118.7150 55° Northeast 528 608 37,000  Level FlightAware
03:00PM 40.0980 -118.6260 55° Northeast 523 602 37,000  Level FlightAware
03:01PM 40.1360 -118.5350 61° Northeast 512 589 37,000  Level FlightAware
03:01PM 40.1690 -118.4240 69° East 508 585 37,000  Level FlightAware
03:02PM 40.1990 -118.3310 67° East 512 589 37,000  Level FlightAware
03:03PM 40.2500 -118.2410 53° Northeast 517 595 37,000  Level FlightAware
03:03PM 40.2980 -118.1600 52° Northeast 519 597 37,000  Level FlightAware
03:04PM 40.3480 -118.0750 52° Northeast 519 597 37,000  Level FlightAware
03:04PM 40.3930 -117.9990 52° Northeast 519 597 37,000  Level FlightAware
03:05PM 40.4380 -117.9230 52° Northeast 519 597 37,000  Level FlightAware
03:06PM 40.4850 -117.8450 52° Northeast 519 597 37,000  Level FlightAware
03:06PM 40.5340 -117.7630 52° Northeast 519 597 37,000  Level FlightAware
03:07PM 40.5800 -117.6840 53° Northeast 519 597 37,000  Level FlightAware
03:07PM 40.6260 -117.6080 51° Northeast 519 597 37,000  Level FlightAware
03:08PM 40.6710 -117.5320 52° Northeast 519 597 37,000  Level FlightAware
03:09PM 40.7160 -117.4550 52° Northeast 519 597 37,000  Level FlightAware
03:09PM 40.7740 -117.3580 52° Northeast 519 597 37,000  Level FlightAware
03:10PM 40.8160 -117.2850 53° Northeast 519 597 37,000  Level FlightAware
03:11PM 40.8860 -117.1680 52° Northeast 519 597 37,000  Level FlightAware
03:11PM 40.9320 -117.0900 52° Northeast 519 597 37,000  Level FlightAware
03:12PM 40.9760 -117.0150 52° Northeast 519 597 37,000  Level FlightAware
03:13PM 41.0220 -116.9360 52° Northeast 519 597 37,000  Level FlightAware
03:17PM 41.0797 -115.9030 85° East 499 574 37,000  Level FlightAware ADS-B
03:17PM 41.0933 -115.8100 79° East 498 573 37,000  Level FlightAware ADS-B
03:18PM 41.1006 -115.7600 79° East 496 571 37,000  Level FlightAware ADS-B
03:18PM 41.1300 -115.5560 79° East 491 565 37,000  Level FlightAware
03:19PM 41.1450 -115.4550 79° East 490 564 37,000  Level FlightAware
03:20PM 41.1590 -115.3560 79° East 490 564 37,000  Level FlightAware
03:20PM 41.1506 -115.4130 259° West 491 565 37,000  Level FlightAware ADS-B
03:20PM 41.1555 -115.3780 79° East 489 563 37,000  Level FlightAware ADS-B
03:21PM 41.1844 -115.1730 79° East 490 564 37,000  Level FlightAware ADS-B
03:21PM 41.1872 -115.1530 79° East 490 564 37,000  Level FlightAware ADS-B
03:22PM 41.2140 -114.9610 79° East 487 560 37,000  Level FlightAware ADS-B
03:22PM 41.2176 -114.9340 80° East 486 559 37,000  Level FlightAware ADS-B
03:23PM 41.2351 -114.8070 80° East 486 559 37,000  Level FlightAware ADS-B
03:24PM 41.2563 -114.6520 80° East 488 562 37,000  Level FlightAware ADS-B
03:24PM 41.2610 -114.6160 80° East 488 562 37,000  Level FlightAware ADS-B
03:25PM 41.2796 -114.4780 80° East 486 559 37,000  Level FlightAware ADS-B
03:25PM 41.2908 -114.3940 80° East 486 559 37,000  Level FlightAware ADS-B
03:26PM 41.3038 -114.2960 80° East 485 558 37,000  Level FlightAware ADS-B
03:26PM 41.3169 -114.1970 80° East 486 559 37,000  Level FlightAware ADS-B
03:27PM 41.3300 -114.0970 80° East 485 558 37,000  Level FlightAware ADS-B
03:27PM 41.3356 -114.0530 80° East 485 558 37,000  Level FlightAware ADS-B
03:28PM 41.3538 -113.9120 80° East 485 558 37,000  Level FlightAware ADS-B
03:29PM 41.3680 -113.8010 80° East 486 559 37,000  Level FlightAware ADS-B
03:29PM 41.3787 -113.7180 80° East 486 559 37,000  Level FlightAware ADS-B
03:30PM 41.3921 -113.6160 80° East 487 560 37,000  Level FlightAware ADS-B
03:30PM 41.3952 -113.5910 81° East 487 560 37,000  Level FlightAware ADS-B
03:31PM 41.4279 -113.3330 80° East 486 559 37,000  Level FlightAware ADS-B
03:32PM 41.4420 -113.2240 80° East 485 558 37,000  Level FlightAware
03:32PM 41.4326 -113.2960 260° West 485 558 37,000  Level FlightAware ADS-B
03:32PM 41.4343 -113.2820 81° East 485 558 37,000  Level FlightAware ADS-B
03:33PM 41.4665 -113.0230 80° East 485 558 37,000  Level FlightAware ADS-B
03:33PM 41.4810 -112.9030 81° East 486 559 37,000  Level FlightAware
03:34PM 41.4746 -112.9560 261° West 485 558 37,000  Level FlightAware ADS-B
03:34PM 41.4959 -112.7810 81° East 484 557 37,000  Level FlightAware ADS-B
03:35PM 41.5103 -112.6610 81° East 484 557 37,000  Level FlightAware ADS-B
03:35PM 41.5220 -112.5620 81° East 485 558 37,000  Level FlightAware ADS-B
03:36PM 41.5336 -112.4640 81° East 485 558 37,000  Level FlightAware ADS-B
03:36PM 41.5424 -112.3820 82° East 483 556 37,000  Level FlightAware ADS-B
03:37PM 41.5519 -112.2900 82° East 484 557 37,000  Level FlightAware ADS-B
03:38PM 41.5638 -112.1740 82° East 485 558 37,000  Level FlightAware ADS-B
03:38PM 41.5728 -112.0880 82° East 485 558 37,000  Level FlightAware ADS-B
03:39PM 41.5837 -111.9820 82° East 484 557 37,000  Level FlightAware ADS-B
03:39PM 41.5950 -111.8710 82° East 484 557 37,000  Level FlightAware
03:40PM 41.5918 -111.9030 262° West 483 556 37,000  Level FlightAware ADS-B
03:40PM 41.6036 -111.7860 82° East 483 556 37,000  Level FlightAware ADS-B
03:40PM 41.6127 -111.6960 82° East 484 557 37,000  Level FlightAware ADS-B
03:41PM 41.6232 -111.5900 82° East 485 558 37,000  Level FlightAware ADS-B
03:42PM 41.6265 -111.5570 82° East 485 558 37,000  Level FlightAware ADS-B
03:42PM 41.6377 -111.4430 82° East 484 557 37,000  Level FlightAware ADS-B
03:43PM 41.6508 -111.3080 83° East 483 556 37,000  Level FlightAware ADS-B
03:43PM 41.6537 -111.2770 83° East 483 556 37,000  Level FlightAware ADS-B
03:44PM 41.6680 -111.1270 83° East 484 557 37,000  Level FlightAware ADS-B
03:44PM 41.6704 -111.1020 83° East 484 557 37,000  Level FlightAware ADS-B
03:45PM 41.6865 -110.9300 83° East 484 557 37,000  Level FlightAware ADS-B
03:45PM 41.6875 -110.9190 83° East 484 557 37,000  Level FlightAware ADS-B
03:46PM 41.7071 -110.7070 83° East 482 555 37,000  Level FlightAware ADS-B
03:46PM 41.7129 -110.6420 83° East 481 554 37,000  Level FlightAware ADS-B
03:47PM 41.7240 -110.5850 75° East 483 556 37,000  Level FlightAware
03:48PM 41.7330 -110.4940 82° East 483 556 37,000  Level FlightAware
03:48PM 41.7430 -110.4040 82° East 483 556 37,000  Level FlightAware
03:49PM 41.7530 -110.3130 82° East 483 556 37,000  Level FlightAware
03:49PM 41.7620 -110.2220 82° East 483 556 37,000  Level FlightAware
03:50PM 41.7720 -110.1290 82° East 483 556 37,000  Level FlightAware
03:51PM 41.7820 -110.0350 82° East 483 556 37,000  Level FlightAware
03:51PM 41.7910 -109.9420 83° East 483 556 37,000  Level FlightAware
03:52PM 41.8010 -109.8510 82° East 483 556 37,000  Level FlightAware
03:52PM 41.8100 -109.7600 82° East 483 556 37,000  Level FlightAware
03:53PM 41.8200 -109.6700 81° East 483 556 37,000  Level FlightAware
03:54PM 41.8290 -109.5790 82° East 483 556 37,000  Level FlightAware
03:54PM 41.8344 -109.2008 82° East 483 556 37,000  Level Denver Center
03:55PM 41.8483 -109.0281 84° East 482 555 37,000  Level Denver Center
03:56PM 41.8608 -108.8558 84° East 482 555 37,000  Level Denver Center
03:58PM 41.8753 -108.6550 84° East 483 556 37,000  Level Denver Center
03:59PM 41.8881 -108.4828 84° East 483 556 37,000  Level Denver Center
04:00PM 41.9019 -108.2800 85° East 486 559 37,000  Level Denver Center
04:01PM 41.9136 -108.1067 85° East 487 560 37,000  Level Denver Center
04:02PM 41.9303 -107.9047 84° East 487 560 37,000  Level Denver Center
04:03PM 41.9483 -107.7319 82° East 489 563 37,000  Level Denver Center
04:04PM 41.9692 -107.5319 82° East 486 559 37,000  Level Denver Center
04:09PM 42.0630 -106.4910 82° East 488 562 37,000  Level FlightAware
04:10PM 42.0710 -106.4050 83° East 488 562 37,000  Level FlightAware
04:11PM 42.0800 -106.2980 83° East 487 560 37,000  Level FlightAware
04:11PM 42.0910 -106.1620 84° East 488 562 37,000  Level FlightAware
04:12PM 42.1000 -106.0580 83° East 487 560 37,000  Level FlightAware
04:12PM 42.1080 -105.9530 84° East 487 560 37,000  Level FlightAware
04:13PM 42.1170 -105.8500 83° East 486 559 37,000  Level FlightAware
04:14PM 42.1250 -105.7560 83° East 486 559 37,000  Level FlightAware
04:14PM 42.1340 -105.6410 84° East 486 559 37,000  Level FlightAware
04:15PM 42.1430 -105.5430 83° East 486 559 37,000  Level FlightAware
04:15PM 42.1510 -105.4220 85° East 488 562 37,000  Level FlightAware
04:16PM 42.1600 -105.3060 84° East 488 562 37,000  Level FlightAware
04:17PM 42.1670 -105.2080 84° East 488 562 37,000  Level FlightAware
04:17PM 42.1740 -105.1150 84° East 488 562 37,000  Level FlightAware
04:18PM 42.1820 -105.0170 84° East 488 562 37,000  Level FlightAware
04:18PM 42.1890 -104.9250 84° East 488 562 37,000  Level FlightAware
04:19PM 42.1960 -104.8320 84° East 488 562 37,000  Level FlightAware
04:20PM 42.2030 -104.7360 84° East 488 562 37,000  Level FlightAware
04:20PM 42.2140 -104.5570 85° East 487 560 37,000  Level FlightAware
04:21PM 42.2220 -104.4530 84° East 487 560 37,000  Level FlightAware
04:22PM 42.2300 -104.3580 83° East 487 560 37,000  Level FlightAware
04:22PM 42.2370 -104.2310 86° East 485 558 37,000  Level FlightAware
04:23PM 42.2440 -104.1390 84° East 485 558 37,000  Level FlightAware
04:23PM 42.2510 -104.0470 84° East 485 558 37,000  Level FlightAware
04:24PM 42.2590 -103.9520 83° East 485 558 37,000  Level FlightAware
04:24PM 42.2660 -103.8600 84° East 485 558 37,000  Level FlightAware
04:25PM 42.2730 -103.7680 84° East 485 558 37,000  Level FlightAware
04:26PM 42.2800 -103.6750 84° East 485 558 37,000  Level FlightAware
04:26PM 42.2840 -103.4770 88° East 484 557 37,000  Level FlightAware
04:27PM 42.2900 -103.3840 85° East 484 557 37,000  Level FlightAware
04:27PM 42.2960 -103.2920 85° East 484 557 37,000  Level FlightAware
04:28PM 42.3020 -103.2000 85° East 484 557 37,000  Level FlightAware
04:29PM 42.3080 -103.1070 85° East 484 557 37,000  Level FlightAware
04:29PM 42.3140 -103.0150 85° East 484 557 37,000  Level FlightAware
04:30PM 42.3200 -102.9230 85° East 484 557 37,000  Level FlightAware
04:30PM 42.3260 -102.8300 85° East 484 557 37,000  Level FlightAware
04:31PM 42.3330 -102.5990 88° East 485 558 37,000  Level FlightAware
04:32PM 42.3400 -102.4990 85° East 485 558 37,000  Level FlightAware
04:32PM 42.3450 -102.4110 86° East 485 558 37,000  Level FlightAware
04:33PM 42.3510 -102.3190 85° East 485 558 37,000  Level FlightAware
04:33PM 42.3570 -102.2260 85° East 485 558 37,000  Level FlightAware
04:34PM 42.3630 -102.1330 85° East 485 558 37,000  Level FlightAware
04:35PM 42.3700 -102.0380 84° East 485 558 37,000  Level FlightAware
04:35PM 42.3760 -101.9430 85° East 485 558 37,000  Level FlightAware
04:36PM 42.3820 -101.8510 85° East 485 558 37,000  Level FlightAware
04:36PM 42.3880 -101.7580 85° East 485 558 37,000  Level FlightAware
04:37PM 42.3940 -101.6650 85° East 485 558 37,000  Level FlightAware
04:38PM 42.4000 -101.5700 85° East 485 558 37,000  Level FlightAware
04:38PM 42.4060 -101.4770 85° East 485 558 37,000  Level FlightAware
04:39PM 42.4110 -101.3900 86° East 485 558 37,000  Level FlightAware
04:39PM 42.4170 -101.2970 85° East 485 558 37,000  Level FlightAware
04:40PM 42.4230 -101.2050 85° East 485 558 37,000  Level FlightAware
04:41PM 42.4290 -101.1120 85° East 485 558 37,000  Level FlightAware
04:41PM 42.4139 -100.7947 85° East 481 554 37,000  Level Denver Center
04:42PM 42.4203 -100.5903 88° East 485 558 37,000  Level Denver Center
04:43PM 42.4256 -100.4153 88° East 485 558 37,000  Level Denver Center
04:44PM 42.4333 -100.2128 87° East 484 557 37,000  Level Denver Center
04:45PM 42.4383 -100.0381 88° East 484 557 37,000  Level Denver Center
04:46PM 42.4433 -99.8611 88° East 486 559 37,000  Level Denver Center
04:47PM 42.4486 -99.6786 88° East 485 558 37,000  Level Denver Center
04:48PM 42.4503 -99.5722 89° East 481 554 37,000  Level Minneapolis Center
04:49PM 42.4558 -99.3894 88° East 483 556 37,000  Level Minneapolis Center
04:49PM 42.4583 -99.2750 88° East 489 563 37,000  Level Denver Center
04:50PM 42.4625 -99.0917 88° East 487 560 37,000  Level Denver Center
04:51PM 42.4647 -99.0192 88° East 489 563 37,000  Level Minneapolis Center
04:52PM 42.4681 -98.8350 89° East 489 563 37,000  Level Minneapolis Center
04:53PM 42.4775 -98.6139 87° East 489 563 37,000 240 Level Minneapolis Center
04:59PM 42.5250 -97.4980 87° East 475 547 39,000 240 Climbing FlightAware
05:00PM 42.5300 -97.3910 86° East 477 549 39,000  Level FlightAware
05:00PM 42.5340 -97.2740 87° East 478 550 39,000  Level FlightAware
05:01PM 42.5380 -97.1850 86° East 479 551 39,000  Level FlightAware
05:02PM 42.5420 -97.0670 87° East 480 552 39,000  Level FlightAware
05:02PM 42.5450 -96.9810 87° East 480 552 39,000  Level FlightAware
05:03PM 42.5490 -96.8610 87° East 480 552 39,000  Level FlightAware
05:03PM 42.5530 -96.7630 87° East 479 551 39,000  Level FlightAware
05:04PM 42.5570 -96.6490 87° East 479 551 39,000  Level FlightAware
05:05PM 42.5600 -96.5360 88° East 478 550 39,000  Level FlightAware
05:05PM 42.5650 -96.4000 87° East 478 550 39,000  Level FlightAware
05:06PM 42.5680 -96.2970 88° East 477 549 39,000  Level FlightAware
05:07PM 42.5710 -96.1890 88° East 476 548 39,000  Level FlightAware
05:07PM 42.5740 -96.0790 88° East 477 549 39,000  Level FlightAware
05:08PM 42.5780 -95.9840 87° East 477 549 39,000  Level FlightAware
05:08PM 42.5810 -95.8920 87° East 477 549 39,000  Level FlightAware
05:09PM 42.5830 -95.7460 89° East 477 549 39,000  Level FlightAware
05:10PM 42.5860 -95.6430 88° East 478 550 39,000  Level FlightAware
05:10PM 42.5890 -95.5370 88° East 478 550 39,000  Level FlightAware
05:10PM 42.5900 -95.4920 88° East 479 551 39,000  Level FlightAware
05:11PM 42.5930 -95.3450 88° East 480 552 39,000  Level FlightAware
05:12PM 42.5950 -95.2330 89° East 481 554 39,000  Level FlightAware
05:12PM 42.5970 -95.1240 89° East 481 554 39,000  Level FlightAware
05:13PM 42.5990 -95.0320 88° East 482 555 39,000  Level FlightAware
05:14PM 42.6010 -94.9270 88° East 482 555 39,000  Level FlightAware
05:14PM 42.6030 -94.8300 88° East 482 555 39,000  Level FlightAware
05:15PM 42.6050 -94.7170 89° East 482 555 39,000  Level FlightAware
05:15PM 42.6070 -94.6080 89° East 481 554 39,000  Level FlightAware
05:16PM 42.6080 -94.5020 89° East 480 552 39,000  Level FlightAware
05:17PM 42.6100 -94.3890 89° East 480 552 39,000  Level FlightAware
05:17PM 42.6110 -94.2870 89° East 480 552 39,000  Level FlightAware
05:18PM 42.6120 -94.1910 89° East 479 551 39,000  Level FlightAware
05:18PM 42.6130 -94.0890 89° East 479 551 39,000  Level FlightAware
05:19PM 42.6140 -93.9750 89° East 479 551 39,000  Level FlightAware
05:19PM 42.6150 -93.8660 89° East 479 551 39,000  Level FlightAware
05:20PM 42.6150 -93.7630 90° East 479 551 39,000  Level FlightAware
05:21PM 42.6160 -93.6540 89° East 479 551 39,000  Level FlightAware
05:21PM 42.6160 -93.5520 90° East 480 552 39,000  Level FlightAware
05:22PM 42.6160 -93.4550 90° East 480 552 39,000  Level FlightAware
05:22PM 42.6170 -93.3400 89° East 479 551 39,000  Level FlightAware
05:23PM 42.6170 -93.2330 90° East 479 551 39,000  Level FlightAware
05:23PM 42.6170 -93.1390 90° East 479 551 39,000  Level FlightAware
05:24PM 42.6170 -93.0240 90° East 478 550 39,000  Level FlightAware
05:25PM 42.6160 -92.9350 91° East 478 550 39,000  Level FlightAware
05:25PM 42.6160 -92.8270 90° East 478 550 39,000  Level FlightAware
05:26PM 42.6160 -92.7120 90° East 479 551 39,000  Level FlightAware
05:26PM 42.6150 -92.6150 91° East 479 551 39,000  Level FlightAware
05:27PM 42.6150 -92.5030 90° East 480 552 39,000  Level FlightAware
05:28PM 42.6140 -92.4020 91° East 481 554 39,000  Level FlightAware
05:28PM 42.6130 -92.3030 91° East 481 554 39,000  Level FlightAware
05:29PM 42.6130 -92.2110 90° East 482 555 39,000  Level FlightAware
05:29PM 42.6120 -92.0840 91° East 482 555 39,000  Level FlightAware
05:30PM 42.6110 -91.9840 91° East 482 555 39,000  Level FlightAware
05:30PM 42.6100 -91.8900 91° East 482 555 39,000  Level FlightAware
05:31PM 42.6080 -91.7600 91° East 483 556 39,000  Level FlightAware
05:32PM 42.6070 -91.6570 91° East 483 556 39,000  Level FlightAware
05:32PM 42.6050 -91.5620 92° East 484 557 39,000  Level FlightAware
05:33PM 42.6040 -91.4460 91° East 485 558 39,000  Level FlightAware
05:33PM 42.6020 -91.3370 91° East 485 558 39,000  Level FlightAware
05:34PM 42.6010 -91.2410 91° East 485 558 39,000  Level FlightAware
05:35PM 42.5990 -91.1420 92° East 486 559 39,000  Level FlightAware
05:35PM 42.5970 -91.0370 91° East 487 560 39,000  Level FlightAware
05:36PM 42.5950 -90.9260 91° East 487 560 39,000  Level FlightAware
05:36PM 42.5930 -90.8190 91° East 488 562 39,000  Level FlightAware
05:37PM 42.5900 -90.7050 92° East 488 562 39,000  Level FlightAware
05:37PM 42.5880 -90.6080 92° East 488 562 39,000  Level FlightAware
05:38PM 42.5860 -90.5290 92° East 488 562 39,000  Level FlightAware
05:39PM 42.5830 -90.4010 92° East 488 562 39,000  Level FlightAware
05:39PM 42.5800 -90.2820 92° East 489 563 39,000  Level FlightAware
05:40PM 42.5770 -90.1690 92° East 488 562 39,000  Level FlightAware
05:40PM 42.5740 -90.0560 92° East 488 562 39,000  Level FlightAware
05:41PM 42.5710 -89.9390 92° East 488 562 39,000  Level FlightAware
05:42PM 42.5680 -89.8450 92° East 488 562 39,000  Level FlightAware
05:42PM 42.5650 -89.7210 92° East 488 562 39,000  Level FlightAware
05:43PM 42.5620 -89.6160 92° East 487 560 39,000  Level FlightAware
05:43PM 42.5590 -89.5180 92° East 487 560 39,000  Level FlightAware
05:44PM 42.5550 -89.4050 93° East 487 560 39,000  Level FlightAware
05:45PM 42.5510 -89.2930 93° East 486 559 39,000  Level FlightAware
05:45PM 42.5480 -89.2000 92° East 485 558 39,000  Level FlightAware
05:46PM 42.5440 -89.0940 93° East 485 558 39,000  Level FlightAware
05:46PM 42.5400 -88.9820 93° East 483 556 39,000  Level FlightAware
05:47PM 42.5360 -88.8730 93° East 482 555 39,000  Level FlightAware
05:48PM 42.5320 -88.7690 93° East 481 554 39,000  Level FlightAware
05:48PM 42.5280 -88.6710 93° East 480 552 39,000  Level FlightAware
05:49PM 42.5240 -88.5610 93° East 479 551 39,000  Level FlightAware
05:49PM 42.5200 -88.4530 93° East 478 550 39,000  Level FlightAware
05:50PM 42.5150 -88.3460 94° East 477 549 39,000  Level FlightAware
05:50PM 42.5110 -88.2440 93° East 476 548 39,000  Level FlightAware
05:51PM 42.5070 -88.1510 93° East 475 547 39,000  Level FlightAware
05:52PM 42.5020 -88.0400 93° East 474 545 39,000  Level FlightAware
05:52PM 42.5000 -87.9350 91° East 472 543 39,000  Level FlightAware
05:53PM 42.5000 -87.8410 90° East 472 543 39,000  Level FlightAware
05:53PM 42.5000 -87.7300 90° East 472 543 39,000  Level FlightAware
05:54PM 42.4990 -87.6300 91° East 471 542 39,000  Level FlightAware
05:55PM 42.4990 -87.5290 90° East 470 541 39,000  Level FlightAware
05:55PM 42.4990 -87.4260 90° East 470 541 39,000  Level FlightAware
05:56PM 42.4980 -87.3220 91° East 470 541 39,000  Level FlightAware
05:56PM 42.4980 -87.2130 90° East 470 541 39,000  Level FlightAware
05:57PM 42.4970 -87.1150 91° East 470 541 39,000  Level FlightAware
05:57PM 42.4960 -87.0070 91° East 470 541 39,000  Level FlightAware
05:58PM 42.4950 -86.9140 91° East 470 541 39,000  Level FlightAware
05:59PM 42.4940 -86.8040 91° East 470 541 39,000  Level FlightAware
05:59PM 42.4930 -86.7110 91° East 470 541 39,000  Level FlightAware
06:00PM 42.4920 -86.6160 91° East 470 541 39,000  Level FlightAware
06:00PM 42.4910 -86.4930 91° East 469 540 39,000  Level FlightAware
06:01PM 42.4890 -86.4040 92° East 469 540 39,000  Level FlightAware
06:02PM 42.4880 -86.2890 91° East 470 541 39,000  Level FlightAware
06:02PM 42.4860 -86.1870 91° East 471 542 39,000  Level FlightAware
06:03PM 42.4840 -86.0670 91° East 471 542 39,000  Level FlightAware
06:03PM 42.4830 -85.9640 91° East 471 542 39,000  Level FlightAware
06:04PM 42.4810 -85.8520 91° East 472 543 39,000  Level FlightAware
06:05PM 42.4790 -85.7470 91° East 472 543 39,000  Level FlightAware
06:05PM 42.4770 -85.6530 92° East 473 544 39,000  Level FlightAware
06:06PM 42.4750 -85.5590 92° East 474 545 39,000  Level FlightAware
06:06PM 42.4720 -85.4420 92° East 475 547 39,000  Level FlightAware
06:07PM 42.4700 -85.3510 92° East 476 548 39,000  Level FlightAware
06:07PM 42.4680 -85.2390 91° East 476 548 39,000  Level FlightAware
06:08PM 42.4650 -85.1230 92° East 477 549 39,000  Level FlightAware
06:09PM 42.4620 -85.0260 92° East 477 549 39,000  Level FlightAware
06:09PM 42.4600 -84.9370 92° East 477 549 39,000  Level FlightAware
06:10PM 42.4570 -84.8090 92° East 477 549 39,000  Level FlightAware
06:10PM 42.4540 -84.7150 92° East 478 550 39,000  Level FlightAware
06:11PM 42.4500 -84.5900 92° East 478 550 39,000  Level FlightAware
06:12PM 42.4470 -84.4830 92° East 478 550 39,000  Level FlightAware
06:12PM 42.4440 -84.3730 92° East 479 551 39,000  Level FlightAware
06:13PM 42.4410 -84.2820 93° East 478 550 39,000  Level FlightAware
06:13PM 42.4380 -84.1810 92° East 479 551 39,000  Level FlightAware
06:14PM 42.4340 -84.0670 93° East 480 552 39,000  Level FlightAware
06:15PM 42.4300 -83.9610 93° East 481 554 39,000  Level FlightAware
06:15PM 42.4260 -83.8510 93° East 481 554 39,000  Level FlightAware
06:16PM 42.4220 -83.7430 93° East 482 555 39,000  Level FlightAware
06:16PM 42.4180 -83.6440 93° East 483 556 39,000  Level FlightAware
06:17PM 42.4140 -83.5380 93° East 485 558 39,000  Level FlightAware
06:18PM 42.4100 -83.4230 93° East 486 559 39,000  Level FlightAware
06:18PM 42.4060 -83.3250 93° East 487 560 39,000  Level FlightAware
06:19PM 42.4020 -83.2170 93° East 487 560 39,000  Level FlightAware
06:19PM 42.3980 -83.1200 93° East 488 562 39,000  Level FlightAware
06:20PM 42.3930 -83.0110 94° East 489 563 39,000  Level FlightAware
06:20PM 42.3880 -82.8950 93° East 489 563 39,000  Level FlightAware
06:21PM 42.3830 -82.7830 93° East 490 564 39,000  Level FlightAware
06:22PM 42.3780 -82.6850 94° East 490 564 39,000  Level FlightAware
06:22PM 42.3740 -82.5820 93° East 491 565 39,000  Level FlightAware
06:23PM 42.3700 -82.4700 93° East 491 565 39,000  Level FlightAware
06:23PM 42.3660 -82.3620 93° East 492 566 39,000  Level FlightAware
06:24PM 42.3610 -82.2490 93° East 492 566 39,000  Level FlightAware
06:25PM 42.3570 -82.1520 93° East 491 565 39,000  Level FlightAware
06:25PM 42.3530 -82.0600 93° East 493 567 39,000  Level FlightAware
06:26PM 42.3480 -81.9430 93° East 492 566 39,000  Level FlightAware
06:26PM 42.3430 -81.8390 94° East 493 567 39,000  Level FlightAware
06:27PM 42.3380 -81.7270 93° East 492 566 39,000  Level FlightAware
06:28PM 42.3320 -81.5890 93° East 493 567 39,000  Level FlightAware
06:28PM 42.3270 -81.4960 94° East 493 567 39,000  Level FlightAware
06:29PM 42.3220 -81.3850 93° East 494 568 39,000  Level FlightAware
06:29PM 42.3170 -81.2820 94° East 495 570 39,000  Level FlightAware
06:30PM 42.3110 -81.1570 94° East 495 570 39,000  Level FlightAware
06:31PM 42.3060 -81.0560 94° East 496 571 39,000  Level FlightAware
06:31PM 42.3000 -80.9560 95° East 496 571 39,000  Level FlightAware
06:32PM 42.2940 -80.8310 94° East 497 572 39,000  Level FlightAware
06:32PM 42.2880 -80.7300 95° East 497 572 39,000  Level FlightAware
06:33PM 42.2830 -80.6300 94° East 497 572 39,000  Level FlightAware
06:33PM 42.2770 -80.5270 94° East 497 572 39,000  Level FlightAware
06:34PM 42.2620 -80.4030 99° East 503 579 39,000  Level FlightAware
06:35PM 42.2460 -80.3120 103° East 503 579 39,000  Level FlightAware
06:35PM 42.2260 -80.2020 104° East 503 579 39,000  Level FlightAware
06:36PM 42.2090 -80.0990 103° East 504 580 39,000  Level FlightAware
06:36PM 42.1880 -79.9640 102° East 505 581 39,000  Level FlightAware
06:37PM 42.1670 -79.8390 103° East 506 582 39,000  Level FlightAware
06:38PM 42.1510 -79.7360 102° East 505 581 39,000  Level FlightAware
06:38PM 42.1310 -79.6170 103° East 505 581 39,000  Level FlightAware
06:39PM 42.1120 -79.5000 102° East 507 583 39,000  Level FlightAware
06:39PM 42.0940 -79.3940 103° East 507 583 39,000  Level FlightAware
06:40PM 42.0770 -79.2920 103° East 506 582 39,000  Level FlightAware
06:41PM 42.0580 -79.1810 103° East 506 582 39,000  Level FlightAware
06:41PM 42.0390 -79.0700 103° East 509 586 39,000  Level FlightAware
06:42PM 42.0190 -78.9580 103° East 509 586 39,000  Level FlightAware
06:42PM 42.0000 -78.8550 104° East 510 587 39,000  Level FlightAware
06:43PM 41.9800 -78.7430 103° East 510 587 39,000  Level FlightAware
06:44PM 41.9620 -78.6440 104° East 510 587 39,000  Level FlightAware
06:44PM 41.9420 -78.5350 104° East 511 588 39,000  Level FlightAware
06:45PM 41.9230 -78.4300 104° East 511 588 39,000  Level FlightAware
06:45PM 41.9030 -78.3260 104° East 511 588 39,000  Level FlightAware
06:46PM 41.8820 -78.2090 104° East 512 589 39,000  Level FlightAware
06:47PM 41.8610 -78.0980 104° East 514 592 39,000  Level FlightAware
06:47PM 41.8430 -78.0040 104° East 515 593 39,000  Level FlightAware
06:48PM 41.8220 -77.8900 104° East 515 593 39,000  Level FlightAware
06:48PM 41.8000 -77.7770 105° East 515 593 39,000  Level FlightAware
06:49PM 41.7800 -77.6720 104° East 515 593 39,000  Level FlightAware
06:49PM 41.7600 -77.5700 105° East 515 593 39,000  Level FlightAware
06:50PM 41.7390 -77.4590 104° East 516 594 39,000  Level FlightAware
06:51PM 41.7170 -77.3460 105° East 517 595 39,000  Level FlightAware
06:51PM 41.6960 -77.2400 105° East 518 596 39,000  Level FlightAware
06:52PM 41.6740 -77.1380 106° East 523 602 39,000  Level FlightAware
06:52PM 41.6480 -77.0360 109° East 525 604 39,000  Level FlightAware
06:53PM 41.6160 -76.9180 110° East 525 604 39,000  Level FlightAware
06:54PM 41.5860 -76.8100 110° East 527 606 39,000  Level FlightAware
06:54PM 41.5590 -76.7110 110° East 526 605 39,000  Level FlightAware
06:55PM 41.5300 -76.6040 110° East 525 604 39,000 -120 Level FlightAware
06:55PM 41.4980 -76.4880 110° East 521 600 38,900 -540 Descending FlightAware
06:56PM 41.4730 -76.3990 111° Southeast 522 601 38,400 -1,740 Descending FlightAware
06:56PM 41.4410 -76.2830 110° East 540 621 37,000 -1,800 Descending FlightAware
06:57PM 41.4120 -76.1820 111° Southeast 546 628 36,300 -2,220 Descending FlightAware
06:58PM 41.3770 -76.0560 110° East 556 640 34,400 -3,360 Descending FlightAware
06:58PM 41.3480 -75.9530 111° Southeast 565 650 32,300 -3,780 Descending FlightAware
06:59PM 41.3170 -75.8440 111° Southeast 569 655 30,200 -3,360 Descending FlightAware
06:59PM 41.2840 -75.7280 111° Southeast 559 643 28,400 -2,760 Descending FlightAware
07:00PM 41.2460 -75.6080 113° Southeast 546 628 26,900 -2,400 Descending FlightAware
07:00PM 41.2150 -75.5150 114° Southeast 536 617 25,600 -2,520 Descending FlightAware
07:01PM 41.1790 -75.4080 114° Southeast 523 602 24,100 -2,160 Descending FlightAware
07:02PM 41.1450 -75.3060 114° Southeast 508 585 23,100 -960 Descending FlightAware
07:02PM 41.1100 -75.2040 114° Southeast 514 592 23,000 -120 Descending FlightAware
07:03PM 41.0760 -75.1030 114° Southeast 514 592 23,000  Level FlightAware
07:03PM 41.0440 -75.0100 114° Southeast 513 590 23,000  Level FlightAware
07:04PM 41.0100 -74.9050 113° Southeast 513 590 23,000 -120 Level FlightAware
07:05PM 40.9900 -74.8080 105° East 511 588 22,900 -1,140 Descending FlightAware
07:05PM 40.9750 -74.6860 99° East 500 575 21,700 -1,980 Descending FlightAware
07:05PM 40.9719 -74.6556 98° East 500 575 21,400 -2,160 Descending FlightAware ADS-B
07:06PM 40.9540 -74.4870 98° East 481 554 19,300 -1,440 Descending FlightAware
07:07PM 40.9413 -74.3686 98° East 436 502 19,000 -300 Descending FlightAware ADS-B
07:07PM 40.9328 -74.2924 98° East 401 461 19,000  Level FlightAware ADS-B
07:08PM 40.9234 -74.2084 98° East 391 450 19,000  Level FlightAware ADS-B
07:08PM 40.9162 -74.1570 100° East 390 449 19,000  Level FlightAware ADS-B
07:09PM 40.9093 -74.1307 109° East 390 449 19,000 -420 Level FlightAware ADS-B
07:09PM 40.8945 -74.0924 117° Southeast 387 445 18,800 -1,260 Descending FlightAware ADS-B
07:09PM 40.8657 -74.0323 122° Southeast 386 444 18,000 -1,680 Descending FlightAware ADS-B
07:10PM 40.8314 -73.9644 124° Southeast 386 444 17,000 -1,440 Descending FlightAware ADS-B
07:11PM 40.7790 -73.8600 124° Southeast 375 432 15,900 -1,020 Descending FlightAware
07:11PM 40.7666 -73.8342 122° Southeast 374 430 15,900 -180 Level FlightAware ADS-B
07:12PM 40.7350 -73.7730 124° Southeast 369 425 15,800 -1,260 Descending FlightAware
07:12PM 40.6940 -73.7180 135° Southeast 351 404 14,500 -2,160 Descending FlightAware
07:13PM 40.6590 -73.6790 140° Southeast 322 371 13,400 -2,160 Descending FlightAware
07:13PM 40.6120 -73.6540 158° South 304 350 12,100 -2,700 Descending FlightAware
07:14PM 40.5670 -73.6330 160° South 308 354 10,400 -2,940 Descending FlightAware
07:14PM 40.5440 -73.6230 162° South 307 353 9,700 -2,520 Descending FlightAware
07:15PM 40.5170 -73.6130 164° South 301 346 8,900 -2,400 Descending FlightAware
07:15PM 40.5060 -73.6120 176° South 293 337 8,600 -1,980 Descending FlightAware
07:15PM 40.4800 -73.6170 188° South 276 318 8,000 -2,100 Descending FlightAware
07:15PM 40.4620 -73.6220 192° South 272 313 7,400 -2,340 Descending FlightAware
07:16PM 40.4370 -73.6300 194° South 269 310 6,600 -2,280 Descending FlightAware
07:16PM 40.4130 -73.6380 194° South 273 314 5,900 -2,280 Descending FlightAware
07:16PM 40.3940 -73.6440 194° South 276 318 5,300 -1,740 Descending FlightAware
07:16PM 40.3760 -73.6500 194° South 278 320 5,000 -1,260 Descending FlightAware
07:17PM 40.3480 -73.6600 195° South 277 319 4,500 -1,380 Descending FlightAware
07:17PM 40.3380 -73.6660 205° Southwest 273 314 4,300 -1,680 Descending FlightAware
07:17PM 40.3260 -73.6850 230° Southwest 269 310 3,900 -1,500 Descending FlightAware
07:17PM 40.3230 -73.6950 249° West 261 300 3,800 -1,800 Descending FlightAware
07:18PM 40.3170 -73.7210 253° West 259 298 3,200 -840 Descending FlightAware
07:18PM 40.3090 -73.7540 252° West 259 298 3,200 -1,680 Level FlightAware
07:18PM 40.3200 -73.7940 290° West 249 287 1,900 -1,680 Descending FlightAware
07:19PM 40.3320 -73.8250 297° West 240 276 1,900  Level FlightAware
07:19PM 40.3410 -73.8370 315° West 224 258 1,900  Level FlightAware
07:19PM 40.3620 -73.8550 327° Northwest 203 234 1,900  Level FlightAware
07:20PM 40.3770 -73.8680 327° Northwest 193 222 1,900  Level FlightAware
07:20PM 40.3910 -73.8800 327° Northwest 193 222 1,900  Level FlightAware
07:20PM 40.4040 -73.8850 344° North 193 222 1,900  Level FlightAware
07:21PM 40.4200 -73.8860 357° North 199 229 1,900  Level FlightAware
07:21PM 40.4430 -73.8860 360° North 198 228 1,900  Level FlightAware
07:21PM 40.4640 -73.8860 360° North 188 216 1,900  Level FlightAware
07:22PM 40.4800 -73.8800 16° North 175 201 1,900  Level FlightAware
07:22PM 40.4920 -73.8740 21° North 172 198 1,900  Level FlightAware
07:22PM 40.5060 -73.8640 29° Northeast 174 200 1,900  Level FlightAware
07:23PM 40.5180 -73.8540 32° Northeast 173 199 1,900  Level FlightAware
07:23PM 40.5330 -73.8420 31° Northeast 173 199 1,900  Level FlightAware
07:23PM 40.5400 -73.8370 28° Northeast 174 200 1,900 -780 Level FlightAware
07:24PM 40.5550 -73.8250 31° Northeast 167 192 1,500 -1,020 Descending FlightAware
07:24PM 40.5650 -73.8170 31° Northeast 152 175 1,300 -720 Descending FlightAware
07:24PM 40.5750 -73.8090 31° Northeast 135 155 1,100 -600 Descending FlightAware
07:24PM 40.5840 -73.8030 27° Northeast 129 148 900 -840 Descending FlightAware
07:25PM 40.6000 -73.7900 32° Northeast 126 145 500 -780 Descending FlightAware
07:25PM 40.6120 -73.7810 30° Northeast 134 154 300 -780 Descending FlightAware
07:25PM 40.6180 -73.7760 32° Northeast 134 154 100 -1,140 Descending FlightAware
07:26PM 40.6280 -73.7680 31° Northeast 127 146 -300 Descending FlightAware